Ryan Point — WDI6485 — position and weather

sailwx.info

Track history (hours):
 
Tides and Currents Weather Stations Pressure Air Temp Water Temp Dewpoint Dewpoint Depression Visibility Wind Speed Wind Dir Waves Ship Positions

Ryan Point

Owner: Tidewater Barge Lines, Inc., Vancouver, WA. More information available from US FCC via Universal Licensing System and Coast Guard Vessel Documentation Center.

Last reported at 2018-May-24 09:00 UTC. Time now 2018-May-24 17:19 UTC.
Position N 45°34' W 122°21'.

Length 30 m; draft 4.5 m.

Type: Towing. MMSI: 367719170.

Date/timePositionNaut miles runAvg speedWind from/ knotsBaromVisibWave heightAir tempDewpointWater temp
2018-May-24 09:00N 45°34' W 122°21'3 5.2
2018-May-24 08:30N 45°34' W 122°25'2 4.4
2018-May-24 08:00N 45°34' W 122°28'3 6.2
2018-May-24 07:30N 45°36' W 122°32'3 6.1
2018-May-24 07:00N 45°36' W 122°36'3 6.0
2018-May-24 06:30N 45°37' W 122°40'2 3.5
2018-May-24 05:59N 45°38' W 122°42'2 3.9
2018-May-24 05:31N 45°39' W 122°45'0 0.0
2018-May-24 05:00N 45°39' W 122°45'0 1.0
2018-May-24 04:30N 45°39' W 122°44'2 4.3
2018-May-24 04:00N 45°38' W 122°42'1 0.7
2018-May-24 03:17N 45°38' W 122°42'0 0.0
2018-May-24 03:00N 45°38' W 122°42'0 0.0
2018-May-24 02:30N 45°38' W 122°42'0 0.0
2018-May-24 02:00N 45°38' W 122°42'1 0.6
2018-May-24 00:59N 45°38' W 122°43'0 0.1
2018-May-24 00:30N 45°38' W 122°43'0 0.2
2018-May-24 00:00N 45°38' W 122°43'0 0.8
2018-May-23 23:30N 45°38' W 122°42'1 2.8
2018-May-23 23:00N 45°39' W 122°44'0 0.6
2018-May-23 22:30N 45°38' W 122°44'0 0.7
2018-May-23 22:00N 45°39' W 122°44'0 0.0
2018-May-23 21:31N 45°39' W 122°44'0 0.0
2018-May-23 21:00N 45°39' W 122°44'0 0.0
2018-May-23 20:30N 45°39' W 122°44'0 0.0
2018-May-23 20:00N 45°39' W 122°44'0 0.0
2018-May-23 19:15N 45°39' W 122°44'0 0.0
2018-May-23 19:01N 45°39' W 122°44'0 0.0
2018-May-23 18:15N 45°39' W 122°44'0 0.0
2018-May-23 17:54N 45°39' W 122°44'0 0.0
2018-May-23 17:14N 45°39' W 122°44'0 0.0
2018-May-23 17:00N 45°39' W 122°44'0 0.0
2018-May-23 16:16N 45°39' W 122°44'0 0.0
2018-May-23 16:00N 45°39' W 122°44'0 0.0
2018-May-23 15:30N 45°39' W 122°44'0 0.0
2018-May-23 15:00N 45°39' W 122°44'0 0.0
2018-May-23 14:30N 45°39' W 122°44'0 0.0
2018-May-23 14:00N 45°39' W 122°44'0 0.0
2018-May-23 13:30N 45°39' W 122°44'0 0.0
2018-May-23 12:11N 45°39' W 122°44'0 0.0
2018-May-23 11:40N 45°39' W 122°44'0 0.0
2018-May-23 11:16N 45°39' W 122°44'0 0.0
2018-May-23 11:00N 45°39' W 122°44'0 0.0
2018-May-23 10:30N 45°39' W 122°44'0 0.0
2018-May-23 10:00N 45°39' W 122°44'0 0.0
2018-May-23 09:30N 45°39' W 122°44'0 0.0
2018-May-23 09:00N 45°39' W 122°44'0 0.0
2018-May-23 08:30N 45°39' W 122°44'0 0.0
2018-May-23 08:00N 45°39' W 122°44'0 0.2
2018-May-23 07:29N 45°39' W 122°45'1 2.8
2018-May-23 06:59N 45°38' W 122°43'0 0.0
2018-May-23 06:30N 45°38' W 122°43'0 0.2
2018-May-23 06:00N 45°38' W 122°43'4 6.1
2018-May-23 05:21N 45°36' W 122°38'410.6
2018-May-23 05:00N 45°36' W 122°32'610.2
2018-May-23 04:27N 45°34' W 122°25'410.0
2018-May-23 04:00N 45°33' W 122°19'5 9.9
2018-May-23 03:30N 45°34' W 122°12'  
2018-May-19 08:25N 45°37' W 122°01'2 3.7
2018-May-19 07:56N 45°36' W 122°04'3 2.3
2018-May-19 06:41N 45°35' W 122°08'1 6.6
2018-May-19 06:30N 45°35' W 122°09'510.1
2018-May-19 06:00N 45°33' W 122°16'2 3.0
2018-May-19 05:30N 45°33' W 122°18'3 6.0
2018-May-19 05:00N 45°34' W 122°22'2 4.7
2018-May-19 04:31N 45°34' W 122°25'3 5.5
2018-May-19 03:59N 45°35' W 122°29'3 6.0
2018-May-19 03:30N 45°36' W 122°33'3 6.0
2018-May-19 03:00N 45°36' W 122°37'3 5.8
2018-May-19 02:30N 45°37' W 122°41'3 5.2
2018-May-19 01:51N 45°39' W 122°45'0 0.4
2018-May-19 01:18N 45°39' W 122°45'0 1.0
2018-May-19 01:00N 45°39' W 122°44'1 0.3
2018-May-18 22:58N 45°39' W 122°45'0 0.2
2018-May-18 22:28N 45°39' W 122°45'2 5.1
2018-May-18 22:00N 45°38' W 122°42'0 0.8
2018-May-18 21:30N 45°38' W 122°41'3 1.9
2018-May-18 20:03N 45°39' W 122°45'211.3
2018-May-18 19:52N 45°38' W 122°42'411.1
2018-May-18 19:30N 45°36' W 122°37'611.2
2018-May-18 18:58N 45°35' W 122°29'510.8
2018-May-18 18:29N 45°34' W 122°21'  
2018-May-16 03:09N 45°37' W 122°02'1 3.1
2018-May-16 02:57N 45°37' W 122°02'6 6.6
2018-May-16 02:05N 45°35' W 122°10'1 8.0
2018-May-16 02:00N 45°34' W 122°11'3 6.9
2018-May-16 01:30N 45°33' W 122°15'3 6.7
2018-May-16 01:00N 45°33' W 122°20'3 5.4
2018-May-16 00:30N 45°34' W 122°24'3 5.7
2018-May-16 00:00N 45°34' W 122°28'3 6.4
2018-May-15 23:30N 45°35' W 122°32'3 5.8
2018-May-15 23:00N 45°36' W 122°36'3 5.7
2018-May-15 22:30N 45°37' W 122°40'4 6.4
2018-May-15 21:56N 45°39' W 122°44'0 0.3
2018-May-15 21:17N 45°39' W 122°45'0 0.0
2018-May-15 21:00N 45°39' W 122°45'0 0.0
2018-May-15 20:30N 45°39' W 122°45'0 0.4
2018-May-15 20:00N 45°39' W 122°44'0 0.0
2018-May-15 19:30N 45°39' W 122°44'0 0.0
2018-May-15 19:01N 45°39' W 122°44'0 0.0
2018-May-15 18:30N 45°39' W 122°44'0 0.0
2018-May-15 17:49N 45°39' W 122°44'0 0.0
2018-May-15 17:30N 45°39' W 122°44'0 0.0
2018-May-15 17:00N 45°39' W 122°44'0 0.2
2018-May-15 16:14N 45°39' W 122°45'0 1.0
2018-May-15 16:00N 45°39' W 122°45'2 4.7
2018-May-15 15:30N 45°37' W 122°47'3 6.1
2018-May-15 15:00N 45°35' W 122°45'1 1.8
2018-May-15 14:31N 45°34' W 122°44'2 3.2
2018-May-15 14:01N 45°35' W 122°46'4 7.1
2018-May-15 13:30N 45°39' W 122°46'5 9.1
2018-May-15 13:00N 45°37' W 122°40'510.6
2018-May-15 12:30N 45°36' W 122°33'610.2
2018-May-15 11:57N 45°34' W 122°25'410.2
2018-May-15 11:30N 45°33' W 122°19'510.3
2018-May-15 11:00N 45°34' W 122°12'  
Track history (hours):
 
Tides and Currents Weather Stations Pressure Air Temp Water Temp Dewpoint Dewpoint Depression Visibility Wind Speed Wind Dir Waves Ship Positions

Ryan Point

Owner: Tidewater Barge Lines, Inc., Vancouver, WA. More information available from US FCC via Universal Licensing System and Coast Guard Vessel Documentation Center.

Last reported at 2018-May-24 09:00 UTC. Time now 2018-May-24 17:19 UTC.
Position N 45°34' W 122°21'.

Length 30 m; draft 4.5 m.

Type: Towing. MMSI: 367719170.

Date/timePositionNaut miles runAvg speedWind from/ knotsBaromVisibWave heightAir tempDewpointWater temp
2018-May-24 09:00N 45°34' W 122°21'3 5.2
2018-May-24 08:30N 45°34' W 122°25'2 4.4
2018-May-24 08:00N 45°34' W 122°28'3 6.2
2018-May-24 07:30N 45°36' W 122°32'3 6.1
2018-May-24 07:00N 45°36' W 122°36'3 6.0
2018-May-24 06:30N 45°37' W 122°40'2 3.5
2018-May-24 05:59N 45°38' W 122°42'2 3.9
2018-May-24 05:31N 45°39' W 122°45'0 0.0
2018-May-24 05:00N 45°39' W 122°45'0 1.0
2018-May-24 04:30N 45°39' W 122°44'2 4.3
2018-May-24 04:00N 45°38' W 122°42'1 0.7
2018-May-24 03:17N 45°38' W 122°42'0 0.0
2018-May-24 03:00N 45°38' W 122°42'0 0.0
2018-May-24 02:30N 45°38' W 122°42'0 0.0
2018-May-24 02:00N 45°38' W 122°42'1 0.6
2018-May-24 00:59N 45°38' W 122°43'0 0.1
2018-May-24 00:30N 45°38' W 122°43'0 0.2
2018-May-24 00:00N 45°38' W 122°43'0 0.8
2018-May-23 23:30N 45°38' W 122°42'1 2.8
2018-May-23 23:00N 45°39' W 122°44'0 0.6
2018-May-23 22:30N 45°38' W 122°44'0 0.7
2018-May-23 22:00N 45°39' W 122°44'0 0.0
2018-May-23 21:31N 45°39' W 122°44'0 0.0
2018-May-23 21:00N 45°39' W 122°44'0 0.0
2018-May-23 20:30N 45°39' W 122°44'0 0.0
2018-May-23 20:00N 45°39' W 122°44'0 0.0
2018-May-23 19:15N 45°39' W 122°44'0 0.0
2018-May-23 19:01N 45°39' W 122°44'0 0.0
2018-May-23 18:15N 45°39' W 122°44'0 0.0
2018-May-23 17:54N 45°39' W 122°44'0 0.0
2018-May-23 17:14N 45°39' W 122°44'0 0.0
2018-May-23 17:00N 45°39' W 122°44'0 0.0
2018-May-23 16:16N 45°39' W 122°44'0 0.0
2018-May-23 16:00N 45°39' W 122°44'0 0.0
2018-May-23 15:30N 45°39' W 122°44'0 0.0
2018-May-23 15:00N 45°39' W 122°44'0 0.0
2018-May-23 14:30N 45°39' W 122°44'0 0.0
2018-May-23 14:00N 45°39' W 122°44'0 0.0
2018-May-23 13:30N 45°39' W 122°44'0 0.0
2018-May-23 12:11N 45°39' W 122°44'0 0.0
2018-May-23 11:40N 45°39' W 122°44'0 0.0
2018-May-23 11:16N 45°39' W 122°44'0 0.0
2018-May-23 11:00N 45°39' W 122°44'0 0.0
2018-May-23 10:30N 45°39' W 122°44'0 0.0
2018-May-23 10:00N 45°39' W 122°44'0 0.0
2018-May-23 09:30N 45°39' W 122°44'0 0.0
2018-May-23 09:00N 45°39' W 122°44'0 0.0
2018-May-23 08:30N 45°39' W 122°44'0 0.0
2018-May-23 08:00N 45°39' W 122°44'0 0.2
2018-May-23 07:29N 45°39' W 122°45'1 2.8
2018-May-23 06:59N 45°38' W 122°43'0 0.0
2018-May-23 06:30N 45°38' W 122°43'0 0.2
2018-May-23 06:00N 45°38' W 122°43'4 6.1
2018-May-23 05:21N 45°36' W 122°38'410.6
2018-May-23 05:00N 45°36' W 122°32'610.2
2018-May-23 04:27N 45°34' W 122°25'410.0
2018-May-23 04:00N 45°33' W 122°19'5 9.9
2018-May-23 03:30N 45°34' W 122°12'  
2018-May-19 08:25N 45°37' W 122°01'2 3.7
2018-May-19 07:56N 45°36' W 122°04'3 2.3
2018-May-19 06:41N 45°35' W 122°08'1 6.6
2018-May-19 06:30N 45°35' W 122°09'510.1
2018-May-19 06:00N 45°33' W 122°16'2 3.0
2018-May-19 05:30N 45°33' W 122°18'3 6.0
2018-May-19 05:00N 45°34' W 122°22'2 4.7
2018-May-19 04:31N 45°34' W 122°25'3 5.5
2018-May-19 03:59N 45°35' W 122°29'3 6.0
2018-May-19 03:30N 45°36' W 122°33'3 6.0
2018-May-19 03:00N 45°36' W 122°37'3 5.8
2018-May-19 02:30N 45°37' W 122°41'3 5.2
2018-May-19 01:51N 45°39' W 122°45'0 0.4
2018-May-19 01:18N 45°39' W 122°45'0 1.0
2018-May-19 01:00N 45°39' W 122°44'1 0.3
2018-May-18 22:58N 45°39' W 122°45'0 0.2
2018-May-18 22:28N 45°39' W 122°45'2 5.1
2018-May-18 22:00N 45°38' W 122°42'0 0.8
2018-May-18 21:30N 45°38' W 122°41'3 1.9
2018-May-18 20:03N 45°39' W 122°45'211.3
2018-May-18 19:52N 45°38' W 122°42'411.1
2018-May-18 19:30N 45°36' W 122°37'611.2
2018-May-18 18:58N 45°35' W 122°29'510.8
2018-May-18 18:29N 45°34' W 122°21'  
2018-May-16 03:09N 45°37' W 122°02'1 3.1
2018-May-16 02:57N 45°37' W 122°02'6 6.6
2018-May-16 02:05N 45°35' W 122°10'1 8.0
2018-May-16 02:00N 45°34' W 122°11'3 6.9
2018-May-16 01:30N 45°33' W 122°15'3 6.7
2018-May-16 01:00N 45°33' W 122°20'3 5.4
2018-May-16 00:30N 45°34' W 122°24'3 5.7
2018-May-16 00:00N 45°34' W 122°28'3 6.4
2018-May-15 23:30N 45°35' W 122°32'3 5.8
2018-May-15 23:00N 45°36' W 122°36'3 5.7
2018-May-15 22:30N 45°37' W 122°40'4 6.4
2018-May-15 21:56N 45°39' W 122°44'0 0.3
2018-May-15 21:17N 45°39' W 122°45'0 0.0
2018-May-15 21:00N 45°39' W 122°45'0 0.0
2018-May-15 20:30N 45°39' W 122°45'0 0.4
2018-May-15 20:00N 45°39' W 122°44'0 0.0
2018-May-15 19:30N 45°39' W 122°44'0 0.0
2018-May-15 19:01N 45°39' W 122°44'0 0.0
2018-May-15 18:30N 45°39' W 122°44'0 0.0
2018-May-15 17:49N 45°39' W 122°44'0 0.0
2018-May-15 17:30N 45°39' W 122°44'0 0.0
2018-May-15 17:00N 45°39' W 122°44'0 0.2
2018-May-15 16:14N 45°39' W 122°45'0 1.0
2018-May-15 16:00N 45°39' W 122°45'2 4.7
2018-May-15 15:30N 45°37' W 122°47'3 6.1
2018-May-15 15:00N 45°35' W 122°45'1 1.8
2018-May-15 14:31N 45°34' W 122°44'2 3.2
2018-May-15 14:01N 45°35' W 122°46'4 7.1
2018-May-15 13:30N 45°39' W 122°46'5 9.1
2018-May-15 13:00N 45°37' W 122°40'510.6
2018-May-15 12:30N 45°36' W 122°33'610.2
2018-May-15 11:57N 45°34' W 122°25'410.2
2018-May-15 11:30N 45°33' W 122°19'510.3
2018-May-15 11:00N 45°34' W 122°12'  

Dump ship's entire track history